Terminal Aerodrome Forecast
Issued by NWS

Home | Current Version | Previous Version | Text Only | Print | Product List | Glossary On
Versions: 1 2 3 4 5 6 7 8 9 10 11 12 13
000
FTUS44 KCRP 062334
TAFALI
TAF
KALI 062334Z 0700/0724 15015G25KT P6SM SCT035 BKN250
     FM070200 15011KT P6SM SCT025
      TEMPO 0702/0706 BKN025
     FM070900 14007KT P6SM BKN015 WS020/18035KT
      TEMPO 0710/0712 5SM BR
     FM071430 16017G25KT P6SM SCT035 BKN250
     FM072100 15021G28KT P6SM SCT045 BKN250=

USA.gov is the U.S. government's official web portal to all federal, state and local government web resources and services.